sensor_id;sensor_type;location;lat;lon;timestamp;P1;durP1;ratioP1;P2;durP2;ratioP2
44366;SDS011;30086;57.660;12.000;2023-11-21T00:02:05;11.85;;;7.45;;
44366;SDS011;30086;57.660;12.000;2023-11-21T00:04:31;11.43;;;7.13;;
44366;SDS011;30086;57.660;12.000;2023-11-21T00:06:57;15.55;;;7.90;;
44366;SDS011;30086;57.660;12.000;2023-11-21T00:09:24;14.15;;;8.10;;
44366;SDS011;30086;57.660;12.000;2023-11-21T00:11:50;12.93;;;7.85;;
44366;SDS011;30086;57.660;12.000;2023-11-21T00:14:19;13.63;;;7.95;;
44366;SDS011;30086;57.660;12.000;2023-11-21T00:16:47;14.13;;;7.68;;
44366;SDS011;30086;57.660;12.000;2023-11-21T00:19:13;14.65;;;7.53;;
44366;SDS011;30086;57.660;12.000;2023-11-21T00:21:39;15.10;;;7.60;;
44366;SDS011;30086;57.660;12.000;2023-11-21T00:24:09;16.55;;;8.18;;
44366;SDS011;30086;57.660;12.000;2023-11-21T00:26:38;13.63;;;8.02;;
44366;SDS011;30086;57.660;12.000;2023-11-21T00:29:05;16.30;;;8.02;;
44366;SDS011;30086;57.660;12.000;2023-11-21T00:31:34;13.77;;;7.80;;
44366;SDS011;30086;57.660;12.000;2023-11-21T00:34:04;13.65;;;7.70;;
44366;SDS011;30086;57.660;12.000;2023-11-21T00:36:45;12.38;;;7.18;;
44366;SDS011;30086;57.660;12.000;2023-11-21T00:39:12;14.02;;;9.10;;
44366;SDS011;30086;57.660;12.000;2023-11-21T00:41:39;15.32;;;7.88;;
44366;SDS011;30086;57.660;12.000;2023-11-21T00:44:05;13.02;;;8.07;;
44366;SDS011;30086;57.660;12.000;2023-11-21T00:46:31;13.55;;;8.35;;
44366;SDS011;30086;57.660;12.000;2023-11-21T00:48:58;12.02;;;7.55;;
44366;SDS011;30086;57.660;12.000;2023-11-21T00:51:24;12.18;;;7.43;;
44366;SDS011;30086;57.660;12.000;2023-11-21T00:54:06;12.98;;;8.10;;
44366;SDS011;30086;57.660;12.000;2023-11-21T00:56:32;14.23;;;8.05;;
44366;SDS011;30086;57.660;12.000;2023-11-21T00:59:02;11.05;;;7.22;;
44366;SDS011;30086;57.660;12.000;2023-11-21T01:01:30;14.63;;;7.85;;
44366;SDS011;30086;57.660;12.000;2023-11-21T01:03:56;11.18;;;7.07;;
44366;SDS011;30086;57.660;12.000;2023-11-21T01:06:22;12.35;;;7.45;;
44366;SDS011;30086;57.660;12.000;2023-11-21T01:08:48;12.32;;;8.02;;
44366;SDS011;30086;57.660;12.000;2023-11-21T01:11:15;14.35;;;7.70;;
44366;SDS011;30086;57.660;12.000;2023-11-21T01:13:42;12.73;;;7.90;;
44366;SDS011;30086;57.660;12.000;2023-11-21T01:16:12;13.10;;;8.13;;
44366;SDS011;30086;57.660;12.000;2023-11-21T01:18:58;14.88;;;7.65;;
44366;SDS011;30086;57.660;12.000;2023-11-21T01:21:24;14.63;;;8.68;;
44366;SDS011;30086;57.660;12.000;2023-11-21T01:23:51;12.20;;;7.65;;
44366;SDS011;30086;57.660;12.000;2023-11-21T01:26:21;12.60;;;7.78;;
44366;SDS011;30086;57.660;12.000;2023-11-21T01:28:49;12.95;;;7.70;;
44366;SDS011;30086;57.660;12.000;2023-11-21T01:31:15;13.23;;;8.05;;
44366;SDS011;30086;57.660;12.000;2023-11-21T01:33:42;15.15;;;8.93;;
44366;SDS011;30086;57.660;12.000;2023-11-21T01:36:09;13.20;;;8.25;;
44366;SDS011;30086;57.660;12.000;2023-11-21T01:38:36;16.00;;;9.40;;
44366;SDS011;30086;57.660;12.000;2023-11-21T01:41:02;14.13;;;8.80;;
44366;SDS011;30086;57.660;12.000;2023-11-21T01:43:30;16.17;;;8.75;;
44366;SDS011;30086;57.660;12.000;2023-11-21T01:45:57;13.68;;;8.40;;
44366;SDS011;30086;57.660;12.000;2023-11-21T01:48:23;12.60;;;7.95;;
44366;SDS011;30086;57.660;12.000;2023-11-21T01:50:50;16.02;;;8.80;;
44366;SDS011;30086;57.660;12.000;2023-11-21T01:53:17;12.45;;;7.30;;
44366;SDS011;30086;57.660;12.000;2023-11-21T01:56:00;13.88;;;8.80;;
44366;SDS011;30086;57.660;12.000;2023-11-21T01:58:27;14.85;;;8.65;;
44366;SDS011;30086;57.660;12.000;2023-11-21T02:00:53;13.90;;;8.13;;
44366;SDS011;30086;57.660;12.000;2023-11-21T02:03:20;13.82;;;8.88;;
44366;SDS011;30086;57.660;12.000;2023-11-21T02:05:46;14.80;;;8.77;;
44366;SDS011;30086;57.660;12.000;2023-11-21T02:08:12;14.02;;;8.75;;
44366;SDS011;30086;57.660;12.000;2023-11-21T02:10:38;15.85;;;8.82;;
44366;SDS011;30086;57.660;12.000;2023-11-21T02:13:05;11.45;;;8.00;;
44366;SDS011;30086;57.660;12.000;2023-11-21T02:15:31;13.00;;;8.50;;
44366;SDS011;30086;57.660;12.000;2023-11-21T02:17:57;12.48;;;8.07;;
44366;SDS011;30086;57.660;12.000;2023-11-21T02:20:24;12.20;;;8.10;;
44366;SDS011;30086;57.660;12.000;2023-11-21T02:22:54;14.23;;;8.75;;
44366;SDS011;30086;57.660;12.000;2023-11-21T02:25:27;13.88;;;8.13;;
44366;SDS011;30086;57.660;12.000;2023-11-21T02:27:54;13.27;;;8.30;;
44366;SDS011;30086;57.660;12.000;2023-11-21T02:30:21;17.77;;;8.98;;
44366;SDS011;30086;57.660;12.000;2023-11-21T02:32:51;13.75;;;8.63;;
44366;SDS011;30086;57.660;12.000;2023-11-21T02:35:18;11.60;;;7.85;;
44366;SDS011;30086;57.660;12.000;2023-11-21T02:37:46;14.15;;;8.43;;
44366;SDS011;30086;57.660;12.000;2023-11-21T02:40:12;10.23;;;7.60;;
44366;SDS011;30086;57.660;12.000;2023-11-21T02:42:51;12.63;;;7.90;;
44366;SDS011;30086;57.660;12.000;2023-11-21T02:45:31;10.10;;;6.68;;
44366;SDS011;30086;57.660;12.000;2023-11-21T02:47:57;13.25;;;7.32;;
44366;SDS011;30086;57.660;12.000;2023-11-21T02:50:24;14.88;;;8.40;;
44366;SDS011;30086;57.660;12.000;2023-11-21T02:52:50;11.10;;;6.97;;
44366;SDS011;30086;57.660;12.000;2023-11-21T02:55:16;11.27;;;6.85;;
44366;SDS011;30086;57.660;12.000;2023-11-21T02:57:42;14.20;;;6.78;;
44366;SDS011;30086;57.660;12.000;2023-11-21T03:00:08;12.13;;;8.20;;
44366;SDS011;30086;57.660;12.000;2023-11-21T03:02:40;13.82;;;7.45;;
44366;SDS011;30086;57.660;12.000;2023-11-21T03:05:07;14.27;;;7.97;;
44366;SDS011;30086;57.660;12.000;2023-11-21T03:07:37;12.32;;;6.72;;
44366;SDS011;30086;57.660;12.000;2023-11-21T03:10:05;13.45;;;7.68;;
44366;SDS011;30086;57.660;12.000;2023-11-21T03:12:31;13.50;;;7.78;;
44366;SDS011;30086;57.660;12.000;2023-11-21T03:14:57;12.63;;;7.70;;
44366;SDS011;30086;57.660;12.000;2023-11-21T03:17:23;12.80;;;7.30;;
44366;SDS011;30086;57.660;12.000;2023-11-21T03:19:49;13.57;;;8.57;;
44366;SDS011;30086;57.660;12.000;2023-11-21T03:22:19;16.08;;;8.70;;
44366;SDS011;30086;57.660;12.000;2023-11-21T03:24:45;14.07;;;9.10;;
44366;SDS011;30086;57.660;12.000;2023-11-21T03:27:11;13.50;;;8.50;;
44366;SDS011;30086;57.660;12.000;2023-11-21T03:29:37;15.27;;;8.20;;
44366;SDS011;30086;57.660;12.000;2023-11-21T03:32:07;14.07;;;8.45;;
44366;SDS011;30086;57.660;12.000;2023-11-21T03:34:33;17.67;;;9.85;;
44366;SDS011;30086;57.660;12.000;2023-11-21T03:37:00;15.88;;;9.40;;
44366;SDS011;30086;57.660;12.000;2023-11-21T03:39:28;12.68;;;8.02;;
44366;SDS011;30086;57.660;12.000;2023-11-21T03:41:56;11.82;;;7.60;;
44366;SDS011;30086;57.660;12.000;2023-11-21T03:44:22;12.98;;;7.65;;
44366;SDS011;30086;57.660;12.000;2023-11-21T03:46:52;14.75;;;8.77;;
44366;SDS011;30086;57.660;12.000;2023-11-21T03:49:18;14.07;;;8.75;;
44366;SDS011;30086;57.660;12.000;2023-11-21T03:51:44;11.75;;;7.60;;
44366;SDS011;30086;57.660;12.000;2023-11-21T03:54:10;12.57;;;7.75;;
44366;SDS011;30086;57.660;12.000;2023-11-21T03:56:36;15.13;;;7.93;;
44366;SDS011;30086;57.660;12.000;2023-11-21T03:59:02;14.23;;;9.50;;
44366;SDS011;30086;57.660;12.000;2023-11-21T04:01:29;13.38;;;7.80;;
44366;SDS011;30086;57.660;12.000;2023-11-21T04:03:55;15.73;;;8.45;;
44366;SDS011;30086;57.660;12.000;2023-11-21T04:06:22;12.45;;;7.53;;
44366;SDS011;30086;57.660;12.000;2023-11-21T04:08:48;16.67;;;8.15;;
44366;SDS011;30086;57.660;12.000;2023-11-21T04:11:15;12.77;;;7.88;;
44366;SDS011;30086;57.660;12.000;2023-11-21T04:13:43;13.70;;;8.10;;
44366;SDS011;30086;57.660;12.000;2023-11-21T04:16:10;11.82;;;7.20;;
44366;SDS011;30086;57.660;12.000;2023-11-21T04:18:36;12.32;;;6.82;;
44366;SDS011;30086;57.660;12.000;2023-11-21T04:21:04;14.15;;;6.93;;
44366;SDS011;30086;57.660;12.000;2023-11-21T04:23:30;10.98;;;7.32;;
44366;SDS011;30086;57.660;12.000;2023-11-21T04:25:57;12.40;;;7.00;;
44366;SDS011;30086;57.660;12.000;2023-11-21T04:28:24;12.15;;;6.70;;
44366;SDS011;30086;57.660;12.000;2023-11-21T04:30:50;15.30;;;7.68;;
44366;SDS011;30086;57.660;12.000;2023-11-21T04:33:16;12.80;;;7.25;;
44366;SDS011;30086;57.660;12.000;2023-11-21T04:35:43;11.65;;;7.10;;
44366;SDS011;30086;57.660;12.000;2023-11-21T04:38:11;12.20;;;7.22;;
44366;SDS011;30086;57.660;12.000;2023-11-21T04:40:38;12.07;;;8.32;;
44366;SDS011;30086;57.660;12.000;2023-11-21T04:43:04;13.90;;;6.75;;
44366;SDS011;30086;57.660;12.000;2023-11-21T04:45:30;10.85;;;6.75;;
44366;SDS011;30086;57.660;12.000;2023-11-21T04:47:56;11.18;;;7.22;;
44366;SDS011;30086;57.660;12.000;2023-11-21T04:50:23;13.90;;;7.88;;
44366;SDS011;30086;57.660;12.000;2023-11-21T04:52:51;12.23;;;7.28;;
44366;SDS011;30086;57.660;12.000;2023-11-21T04:55:18;14.50;;;8.02;;
44366;SDS011;30086;57.660;12.000;2023-11-21T04:57:44;8.52;;;5.00;;
44366;SDS011;30086;57.660;12.000;2023-11-21T05:00:12;12.52;;;7.50;;
44366;SDS011;30086;57.660;12.000;2023-11-21T05:02:39;11.90;;;6.82;;
44366;SDS011;30086;57.660;12.000;2023-11-21T05:05:07;10.57;;;6.93;;
44366;SDS011;30086;57.660;12.000;2023-11-21T05:07:35;10.00;;;6.25;;
44366;SDS011;30086;57.660;12.000;2023-11-21T05:10:08;9.68;;;4.43;;
44366;SDS011;30086;57.660;12.000;2023-11-21T05:12:40;12.57;;;6.70;;
44366;SDS011;30086;57.660;12.000;2023-11-21T05:15:13;8.02;;;5.10;;
44366;SDS011;30086;57.660;12.000;2023-11-21T05:18:00;12.77;;;7.40;;
44366;SDS011;30086;57.660;12.000;2023-11-21T05:20:36;11.00;;;6.65;;
44366;SDS011;30086;57.660;12.000;2023-11-21T05:23:15;10.77;;;6.40;;
44366;SDS011;30086;57.660;12.000;2023-11-21T05:25:41;13.88;;;7.40;;
44366;SDS011;30086;57.660;12.000;2023-11-21T05:28:08;12.20;;;6.82;;
44366;SDS011;30086;57.660;12.000;2023-11-21T05:30:34;10.23;;;6.45;;
44366;SDS011;30086;57.660;12.000;2023-11-21T05:33:00;13.90;;;7.68;;
44366;SDS011;30086;57.660;12.000;2023-11-21T05:35:26;16.70;;;8.75;;
44366;SDS011;30086;57.660;12.000;2023-11-21T05:37:52;13.07;;;7.15;;
44366;SDS011;30086;57.660;12.000;2023-11-21T05:40:19;12.95;;;7.53;;
44366;SDS011;30086;57.660;12.000;2023-11-21T05:43:04;12.98;;;7.25;;
44366;SDS011;30086;57.660;12.000;2023-11-21T05:45:30;10.95;;;6.72;;
44366;SDS011;30086;57.660;12.000;2023-11-21T05:47:58;11.82;;;7.65;;
44366;SDS011;30086;57.660;12.000;2023-11-21T05:50:28;10.90;;;7.03;;
44366;SDS011;30086;57.660;12.000;2023-11-21T05:52:58;13.43;;;7.43;;
44366;SDS011;30086;57.660;12.000;2023-11-21T05:55:35;10.93;;;7.72;;
44366;SDS011;30086;57.660;12.000;2023-11-21T05:58:10;14.77;;;7.93;;
44366;SDS011;30086;57.660;12.000;2023-11-21T06:00:41;14.48;;;8.45;;
44366;SDS011;30086;57.660;12.000;2023-11-21T06:03:50;14.25;;;6.53;;
44366;SDS011;30086;57.660;12.000;2023-11-21T06:06:17;12.27;;;7.28;;
44366;SDS011;30086;57.660;12.000;2023-11-21T06:08:44;11.00;;;6.72;;
44366;SDS011;30086;57.660;12.000;2023-11-21T06:11:11;11.15;;;7.30;;
44366;SDS011;30086;57.660;12.000;2023-11-21T06:13:43;13.27;;;7.15;;
44366;SDS011;30086;57.660;12.000;2023-11-21T06:16:12;12.23;;;6.78;;
44366;SDS011;30086;57.660;12.000;2023-11-21T06:18:44;12.70;;;7.00;;
44366;SDS011;30086;57.660;12.000;2023-11-21T06:21:10;9.32;;;6.00;;
44366;SDS011;30086;57.660;12.000;2023-11-21T06:23:36;11.93;;;6.97;;
44366;SDS011;30086;57.660;12.000;2023-11-21T06:26:03;12.30;;;6.90;;
44366;SDS011;30086;57.660;12.000;2023-11-21T06:28:30;9.32;;;5.63;;
44366;SDS011;30086;57.660;12.000;2023-11-21T06:30:56;12.43;;;6.90;;
44366;SDS011;30086;57.660;12.000;2023-11-21T06:33:23;12.05;;;7.45;;
44366;SDS011;30086;57.660;12.000;2023-11-21T06:35:52;12.20;;;7.22;;
44366;SDS011;30086;57.660;12.000;2023-11-21T06:38:19;10.13;;;6.20;;
44366;SDS011;30086;57.660;12.000;2023-11-21T06:41:11;13.15;;;7.05;;
44366;SDS011;30086;57.660;12.000;2023-11-21T06:44:06;11.63;;;6.38;;
44366;SDS011;30086;57.660;12.000;2023-11-21T06:46:56;10.82;;;6.70;;
44366;SDS011;30086;57.660;12.000;2023-11-21T06:49:26;11.20;;;5.78;;
44366;SDS011;30086;57.660;12.000;2023-11-21T06:52:16;12.18;;;6.00;;
44366;SDS011;30086;57.660;12.000;2023-11-21T06:54:47;12.60;;;7.30;;
44366;SDS011;30086;57.660;12.000;2023-11-21T06:57:40;13.57;;;7.13;;
44366;SDS011;30086;57.660;12.000;2023-11-21T07:00:07;11.07;;;5.60;;
44366;SDS011;30086;57.660;12.000;2023-11-21T07:02:44;12.40;;;5.63;;
44366;SDS011;30086;57.660;12.000;2023-11-21T07:05:11;9.63;;;6.47;;
44366;SDS011;30086;57.660;12.000;2023-11-21T07:07:57;10.20;;;6.43;;
44366;SDS011;30086;57.660;12.000;2023-11-21T07:10:37;14.15;;;6.13;;
44366;SDS011;30086;57.660;12.000;2023-11-21T07:13:08;12.73;;;6.20;;
44366;SDS011;30086;57.660;12.000;2023-11-21T07:15:58;10.30;;;6.50;;
44366;SDS011;30086;57.660;12.000;2023-11-21T07:18:47;19.45;;;7.20;;
44366;SDS011;30086;57.660;12.000;2023-11-21T07:21:14;12.85;;;6.75;;
44366;SDS011;30086;57.660;12.000;2023-11-21T07:23:42;14.10;;;7.15;;
44366;SDS011;30086;57.660;12.000;2023-11-21T07:26:30;13.50;;;6.25;;
44366;SDS011;30086;57.660;12.000;2023-11-21T07:28:57;23.38;;;7.63;;
44366;SDS011;30086;57.660;12.000;2023-11-21T07:31:24;13.38;;;6.70;;
44366;SDS011;30086;57.660;12.000;2023-11-21T07:33:56;8.82;;;6.15;;
44366;SDS011;30086;57.660;12.000;2023-11-21T07:36:25;13.73;;;7.40;;
44366;SDS011;30086;57.660;12.000;2023-11-21T07:38:55;11.52;;;6.38;;
44366;SDS011;30086;57.660;12.000;2023-11-21T07:41:22;12.10;;;6.32;;
44366;SDS011;30086;57.660;12.000;2023-11-21T07:44:15;13.27;;;6.60;;
44366;SDS011;30086;57.660;12.000;2023-11-21T07:46:46;9.45;;;5.80;;
44366;SDS011;30086;57.660;12.000;2023-11-21T07:49:13;10.98;;;6.45;;
44366;SDS011;30086;57.660;12.000;2023-11-21T07:51:49;8.50;;;5.38;;
44366;SDS011;30086;57.660;12.000;2023-11-21T07:54:16;13.10;;;6.32;;
44366;SDS011;30086;57.660;12.000;2023-11-21T07:56:42;9.88;;;5.82;;
44366;SDS011;30086;57.660;12.000;2023-11-21T07:59:09;10.63;;;5.68;;
44366;SDS011;30086;57.660;12.000;2023-11-21T08:01:35;13.15;;;6.18;;
44366;SDS011;30086;57.660;12.000;2023-11-21T08:04:05;9.55;;;6.28;;
44366;SDS011;30086;57.660;12.000;2023-11-21T08:06:33;8.75;;;5.72;;
44366;SDS011;30086;57.660;12.000;2023-11-21T08:09:19;10.02;;;5.90;;
44366;SDS011;30086;57.660;12.000;2023-11-21T08:11:48;10.15;;;5.53;;
44366;SDS011;30086;57.660;12.000;2023-11-21T08:14:15;9.95;;;5.80;;
44366;SDS011;30086;57.660;12.000;2023-11-21T08:16:41;10.18;;;5.97;;
44366;SDS011;30086;57.660;12.000;2023-11-21T08:19:09;8.50;;;5.63;;
44366;SDS011;30086;57.660;12.000;2023-11-21T08:21:40;8.57;;;5.90;;
44366;SDS011;30086;57.660;12.000;2023-11-21T08:24:07;10.38;;;5.93;;
44366;SDS011;30086;57.660;12.000;2023-11-21T08:26:36;8.65;;;5.38;;
44366;SDS011;30086;57.660;12.000;2023-11-21T08:29:03;9.43;;;5.88;;
44366;SDS011;30086;57.660;12.000;2023-11-21T08:31:43;9.95;;;6.20;;
44366;SDS011;30086;57.660;12.000;2023-11-21T08:34:30;12.77;;;5.65;;
44366;SDS011;30086;57.660;12.000;2023-11-21T08:36:56;9.45;;;5.63;;
44366;SDS011;30086;57.660;12.000;2023-11-21T08:39:23;11.02;;;5.82;;
44366;SDS011;30086;57.660;12.000;2023-11-21T08:42:08;9.68;;;5.90;;
44366;SDS011;30086;57.660;12.000;2023-11-21T08:44:34;9.90;;;6.28;;
44366;SDS011;30086;57.660;12.000;2023-11-21T08:47:09;10.85;;;5.22;;
44366;SDS011;30086;57.660;12.000;2023-11-21T08:49:55;11.73;;;6.20;;
44366;SDS011;30086;57.660;12.000;2023-11-21T08:52:41;10.77;;;6.00;;
44366;SDS011;30086;57.660;12.000;2023-11-21T08:55:07;9.52;;;5.65;;
44366;SDS011;30086;57.660;12.000;2023-11-21T08:57:38;10.65;;;6.20;;
44366;SDS011;30086;57.660;12.000;2023-11-21T09:00:07;10.95;;;6.15;;
44366;SDS011;30086;57.660;12.000;2023-11-21T09:03:01;12.45;;;6.15;;
44366;SDS011;30086;57.660;12.000;2023-11-21T09:05:28;11.75;;;6.18;;
44366;SDS011;30086;57.660;12.000;2023-11-21T09:07:55;9.38;;;5.97;;
44366;SDS011;30086;57.660;12.000;2023-11-21T09:10:37;12.48;;;5.93;;
44366;SDS011;30086;57.660;12.000;2023-11-21T09:13:05;13.07;;;7.50;;
44366;SDS011;30086;57.660;12.000;2023-11-21T09:15:33;13.02;;;5.97;;
44366;SDS011;30086;57.660;12.000;2023-11-21T09:18:10;9.98;;;5.97;;
44366;SDS011;30086;57.660;12.000;2023-11-21T09:20:36;8.80;;;6.25;;
44366;SDS011;30086;57.660;12.000;2023-11-21T09:23:03;11.45;;;6.20;;
44366;SDS011;30086;57.660;12.000;2023-11-21T09:25:29;10.43;;;6.22;;
44366;SDS011;30086;57.660;12.000;2023-11-21T09:28:18;13.65;;;6.32;;
44366;SDS011;30086;57.660;12.000;2023-11-21T09:30:45;10.52;;;6.18;;
44366;SDS011;30086;57.660;12.000;2023-11-21T09:33:16;9.50;;;6.07;;
44366;SDS011;30086;57.660;12.000;2023-11-21T09:35:47;11.38;;;6.53;;
44366;SDS011;30086;57.660;12.000;2023-11-21T09:38:26;8.98;;;5.63;;
44366;SDS011;30086;57.660;12.000;2023-11-21T09:41:03;10.35;;;5.72;;
44366;SDS011;30086;57.660;12.000;2023-11-21T09:43:49;10.43;;;5.80;;
44366;SDS011;30086;57.660;12.000;2023-11-21T09:46:20;10.13;;;6.15;;
44366;SDS011;30086;57.660;12.000;2023-11-21T09:48:50;9.15;;;5.38;;
44366;SDS011;30086;57.660;12.000;2023-11-21T09:51:39;10.55;;;6.28;;
44366;SDS011;30086;57.660;12.000;2023-11-21T09:54:08;8.82;;;5.63;;
44366;SDS011;30086;57.660;12.000;2023-11-21T09:56:37;9.82;;;6.20;;
44366;SDS011;30086;57.660;12.000;2023-11-21T09:59:06;10.45;;;5.80;;
44366;SDS011;30086;57.660;12.000;2023-11-21T10:01:36;8.63;;;5.30;;
44366;SDS011;30086;57.660;12.000;2023-11-21T10:04:05;9.40;;;4.97;;
44366;SDS011;30086;57.660;12.000;2023-11-21T10:06:54;9.02;;;5.38;;
44366;SDS011;30086;57.660;12.000;2023-11-21T10:09:25;7.20;;;5.22;;
44366;SDS011;30086;57.660;12.000;2023-11-21T10:11:53;8.68;;;5.43;;
44366;SDS011;30086;57.660;12.000;2023-11-21T10:14:21;12.77;;;5.50;;
44366;SDS011;30086;57.660;12.000;2023-11-21T10:16:55;8.60;;;5.13;;
44366;SDS011;30086;57.660;12.000;2023-11-21T10:19:30;10.05;;;4.95;;
44366;SDS011;30086;57.660;12.000;2023-11-21T10:21:58;10.35;;;5.13;;
44366;SDS011;30086;57.660;12.000;2023-11-21T10:24:25;7.50;;;5.20;;
44366;SDS011;30086;57.660;12.000;2023-11-21T10:27:11;9.55;;;4.82;;
44366;SDS011;30086;57.660;12.000;2023-11-21T10:29:39;8.23;;;4.80;;
44366;SDS011;30086;57.660;12.000;2023-11-21T10:32:06;6.97;;;5.25;;
44366;SDS011;30086;57.660;12.000;2023-11-21T10:34:35;8.80;;;4.90;;
44366;SDS011;30086;57.660;12.000;2023-11-21T10:37:14;9.60;;;5.60;;
44366;SDS011;30086;57.660;12.000;2023-11-21T10:39:43;7.57;;;4.75;;
44366;SDS011;30086;57.660;12.000;2023-11-21T10:42:10;6.25;;;3.95;;
44366;SDS011;30086;57.660;12.000;2023-11-21T10:44:36;8.18;;;4.72;;
44366;SDS011;30086;57.660;12.000;2023-11-21T10:47:08;8.82;;;4.78;;
44366;SDS011;30086;57.660;12.000;2023-11-21T10:49:36;9.20;;;4.80;;
44366;SDS011;30086;57.660;12.000;2023-11-21T10:52:05;7.10;;;4.70;;
44366;SDS011;30086;57.660;12.000;2023-11-21T10:54:32;11.70;;;5.28;;
44366;SDS011;30086;57.660;12.000;2023-11-21T10:57:02;12.27;;;5.00;;
44366;SDS011;30086;57.660;12.000;2023-11-21T10:59:49;6.53;;;4.18;;
44366;SDS011;30086;57.660;12.000;2023-11-21T11:02:24;7.03;;;3.75;;
44366;SDS011;30086;57.660;12.000;2023-11-21T11:05:00;7.22;;;3.75;;
44366;SDS011;30086;57.660;12.000;2023-11-21T11:07:26;6.50;;;4.13;;
44366;SDS011;30086;57.660;12.000;2023-11-21T11:09:56;7.18;;;4.07;;
44366;SDS011;30086;57.660;12.000;2023-11-21T11:12:25;12.45;;;4.20;;
44366;SDS011;30086;57.660;12.000;2023-11-21T11:14:51;9.27;;;3.65;;
44366;SDS011;30086;57.660;12.000;2023-11-21T11:17:20;6.25;;;4.22;;
44366;SDS011;30086;57.660;12.000;2023-11-21T11:19:47;6.75;;;4.30;;
44366;SDS011;30086;57.660;12.000;2023-11-21T11:22:37;7.97;;;3.90;;
44366;SDS011;30086;57.660;12.000;2023-11-21T11:35:26;6.55;;;3.53;;
44366;SDS011;30086;57.660;12.000;2023-11-21T11:37:54;8.35;;;3.95;;
44366;SDS011;30086;57.660;12.000;2023-11-21T11:40:23;12.65;;;4.18;;
44366;SDS011;30086;57.660;12.000;2023-11-21T11:42:58;10.68;;;3.90;;
44366;SDS011;30086;57.660;12.000;2023-11-21T11:45:40;10.55;;;4.13;;
44366;SDS011;30086;57.660;12.000;2023-11-21T11:48:11;7.53;;;4.75;;
44366;SDS011;30086;57.660;12.000;2023-11-21T11:53:32;12.60;;;4.50;;
44366;SDS011;30086;57.660;12.000;2023-11-21T11:58:43;8.68;;;3.80;;
44366;SDS011;30086;57.660;12.000;2023-11-21T12:01:11;7.60;;;3.42;;
44366;SDS011;30086;57.660;12.000;2023-11-21T12:03:39;9.35;;;3.80;;
44366;SDS011;30086;57.660;12.000;2023-11-21T12:06:16;5.35;;;3.60;;
44366;SDS011;30086;57.660;12.000;2023-11-21T12:08:52;6.85;;;3.72;;
44366;SDS011;30086;57.660;12.000;2023-11-21T12:11:18;7.53;;;3.90;;
44366;SDS011;30086;57.660;12.000;2023-11-21T12:13:46;4.45;;;3.38;;
44366;SDS011;30086;57.660;12.000;2023-11-21T12:16:12;6.43;;;3.80;;
44366;SDS011;30086;57.660;12.000;2023-11-21T12:18:40;4.82;;;3.55;;
44366;SDS011;30086;57.660;12.000;2023-11-21T12:21:07;7.63;;;3.88;;
44366;SDS011;30086;57.660;12.000;2023-11-21T12:23:35;5.13;;;3.17;;
44366;SDS011;30086;57.660;12.000;2023-11-21T12:26:01;4.63;;;3.35;;
44366;SDS011;30086;57.660;12.000;2023-11-21T12:28:31;5.28;;;3.15;;
44366;SDS011;30086;57.660;12.000;2023-11-21T12:31:16;4.60;;;3.42;;
44366;SDS011;30086;57.660;12.000;2023-11-21T12:33:43;4.00;;;2.80;;
44366;SDS011;30086;57.660;12.000;2023-11-21T12:36:10;4.65;;;3.08;;
44366;SDS011;30086;57.660;12.000;2023-11-21T12:38:38;6.25;;;3.15;;
44366;SDS011;30086;57.660;12.000;2023-11-21T12:41:04;5.38;;;3.03;;
44366;SDS011;30086;57.660;12.000;2023-11-21T12:43:31;4.93;;;3.38;;
44366;SDS011;30086;57.660;12.000;2023-11-21T12:46:12;3.88;;;3.20;;
44366;SDS011;30086;57.660;12.000;2023-11-21T12:48:59;6.40;;;2.53;;
44366;SDS011;30086;57.660;12.000;2023-11-21T12:51:26;7.03;;;3.72;;
44366;SDS011;30086;57.660;12.000;2023-11-21T12:53:54;4.43;;;2.75;;
44366;SDS011;30086;57.660;12.000;2023-11-21T12:56:21;6.13;;;3.25;;
44366;SDS011;30086;57.660;12.000;2023-11-21T12:58:50;6.20;;;2.85;;
44366;SDS011;30086;57.660;12.000;2023-11-21T13:01:19;8.18;;;2.60;;
44366;SDS011;30086;57.660;12.000;2023-11-21T13:03:48;7.13;;;2.90;;
44366;SDS011;30086;57.660;12.000;2023-11-21T13:06:16;4.13;;;2.70;;
44366;SDS011;30086;57.660;12.000;2023-11-21T13:08:45;4.18;;;2.88;;
44366;SDS011;30086;57.660;12.000;2023-11-21T13:11:11;4.65;;;2.95;;
44366;SDS011;30086;57.660;12.000;2023-11-21T13:13:40;8.52;;;3.50;;
44366;SDS011;30086;57.660;12.000;2023-11-21T13:16:16;4.30;;;3.08;;
44366;SDS011;30086;57.660;12.000;2023-11-21T13:18:45;5.53;;;2.90;;
44366;SDS011;30086;57.660;12.000;2023-11-21T13:21:11;4.10;;;2.83;;
44366;SDS011;30086;57.660;12.000;2023-11-21T13:23:39;5.35;;;2.95;;
44366;SDS011;30086;57.660;12.000;2023-11-21T13:26:07;8.68;;;2.92;;
44366;SDS011;30086;57.660;12.000;2023-11-21T13:28:34;5.00;;;2.70;;
44366;SDS011;30086;57.660;12.000;2023-11-21T13:31:01;4.68;;;2.55;;
44366;SDS011;30086;57.660;12.000;2023-11-21T13:33:35;3.77;;;2.77;;
44366;SDS011;30086;57.660;12.000;2023-11-21T13:36:06;5.10;;;3.08;;
44366;SDS011;30086;57.660;12.000;2023-11-21T13:38:36;4.65;;;2.90;;
44366;SDS011;30086;57.660;12.000;2023-11-21T13:41:12;6.03;;;2.78;;
44366;SDS011;30086;57.660;12.000;2023-11-21T13:43:39;4.53;;;2.45;;
44366;SDS011;30086;57.660;12.000;2023-11-21T13:46:09;4.22;;;2.45;;
44366;SDS011;30086;57.660;12.000;2023-11-21T13:48:38;3.17;;;2.30;;
44366;SDS011;30086;57.660;12.000;2023-11-21T13:51:11;4.00;;;2.00;;
44366;SDS011;30086;57.660;12.000;2023-11-21T13:54:05;3.70;;;2.58;;
44366;SDS011;30086;57.660;12.000;2023-11-21T13:56:35;5.07;;;2.53;;
44366;SDS011;30086;57.660;12.000;2023-11-21T13:59:11;5.78;;;2.42;;
44366;SDS011;30086;57.660;12.000;2023-11-21T14:01:50;3.67;;;2.35;;
44366;SDS011;30086;57.660;12.000;2023-11-21T14:04:19;5.30;;;2.65;;
44366;SDS011;30086;57.660;12.000;2023-11-21T14:06:57;5.53;;;2.63;;
44366;SDS011;30086;57.660;12.000;2023-11-21T14:09:45;5.18;;;2.75;;
44366;SDS011;30086;57.660;12.000;2023-11-21T14:12:15;5.85;;;2.90;;
44366;SDS011;30086;57.660;12.000;2023-11-21T14:14:45;7.13;;;2.35;;
44366;SDS011;30086;57.660;12.000;2023-11-21T14:17:34;4.35;;;2.58;;
44366;SDS011;30086;57.660;12.000;2023-11-21T14:20:16;5.93;;;2.35;;
44366;SDS011;30086;57.660;12.000;2023-11-21T14:22:47;3.75;;;2.45;;
44366;SDS011;30086;57.660;12.000;2023-11-21T14:25:13;7.40;;;2.53;;
44366;SDS011;30086;57.660;12.000;2023-11-21T14:27:41;2.92;;;2.63;;
44366;SDS011;30086;57.660;12.000;2023-11-21T14:30:07;7.28;;;2.55;;
44366;SDS011;30086;57.660;12.000;2023-11-21T14:32:33;5.05;;;2.92;;
44366;SDS011;30086;57.660;12.000;2023-11-21T14:35:00;5.72;;;2.72;;
44366;SDS011;30086;57.660;12.000;2023-11-21T14:37:26;3.60;;;2.33;;
44366;SDS011;30086;57.660;12.000;2023-11-21T14:39:53;5.32;;;2.58;;
44366;SDS011;30086;57.660;12.000;2023-11-21T14:42:21;3.42;;;2.50;;
44366;SDS011;30086;57.660;12.000;2023-11-21T14:44:50;3.42;;;2.45;;
44366;SDS011;30086;57.660;12.000;2023-11-21T14:47:17;4.35;;;2.60;;
44366;SDS011;30086;57.660;12.000;2023-11-21T14:50:03;11.32;;;3.38;;
44366;SDS011;30086;57.660;12.000;2023-11-21T14:52:57;5.75;;;3.17;;
44366;SDS011;30086;57.660;12.000;2023-11-21T14:55:24;5.93;;;2.50;;
44366;SDS011;30086;57.660;12.000;2023-11-21T14:57:58;10.00;;;3.20;;
44366;SDS011;30086;57.660;12.000;2023-11-21T15:00:28;6.97;;;2.88;;
44366;SDS011;30086;57.660;12.000;2023-11-21T15:03:09;5.90;;;2.45;;